Time;durP1;ratioP1;P1;durP2;ratioP2;P2;SDS_P1;SDS_P2;PMS_P1;PMS_P2;Temp;Humidity;BMP_temperature;BMP_pressure;BME280_temperature;BME280_humidity;BME280_pressure;Samples;Min_cycle;Max_cycle;Signal;HPM_P1;HPM_P2
2022/10/21 00:01:56;;;;;;;7.70;5.50;;;8.00;99.90;;;;;;5008248;28;20498;-55
2022/10/21 00:04:23;;;;;;;11.13;5.80;;;8.10;99.90;;;;;;5008305;28;20511;-53
2022/10/21 00:06:51;;;;;;;9.20;7.07;;;8.10;99.90;;;;;;5005204;28;20838;-54
2022/10/21 00:09:17;;;;;;;10.13;6.20;;;8.20;99.90;;;;;;4998803;28;20902;-53
2022/10/21 00:11:44;;;;;;;8.33;6.23;;;8.10;99.90;;;;;;5004396;28;20495;-54
2022/10/21 00:14:10;;;;;;;6.63;6.03;;;8.20;99.90;;;;;;5008595;28;20565;-53
2022/10/21 00:16:37;;;;;;;7.27;6.07;;;8.10;99.90;;;;;;5008779;28;20883;-54
2022/10/21 00:19:04;;;;;;;8.70;6.20;;;8.20;99.90;;;;;;5009614;28;20526;-53
2022/10/21 00:21:30;;;;;;;12.40;7.00;;;8.20;99.90;;;;;;5006264;28;20460;-54
2022/10/21 00:23:58;;;;;;;7.10;5.57;;;8.10;99.90;;;;;;5006361;28;20492;-54
2022/10/21 00:26:25;;;;;;;10.83;6.40;;;8.20;99.90;;;;;;5006263;28;20552;-53
2022/10/21 00:28:55;;;;;;;12.00;6.63;;;8.10;99.90;;;;;;5006554;28;20487;-55
2022/10/21 00:31:22;;;;;;;7.20;5.60;;;8.10;99.90;;;;;;5006139;28;20517;-53
2022/10/21 00:33:48;;;;;;;8.30;6.60;;;8.10;99.90;;;;;;5008887;28;20535;-55
2022/10/21 00:36:15;;;;;;;7.13;6.43;;;8.20;99.90;;;;;;5006292;28;20491;-54
2022/10/21 00:38:44;;;;;;;8.03;6.23;;;8.10;99.90;;;;;;5008516;28;20467;-55
2022/10/21 00:41:12;;;;;;;8.40;5.97;;;8.20;99.90;;;;;;5005595;28;20492;-54
2022/10/21 00:46:11;;;;;;;6.47;5.80;;;8.20;99.90;;;;;;5003943;28;20475;-51
2022/10/21 00:48:42;;;;;;;9.93;6.27;;;8.20;99.90;;;;;;5008641;28;20455;-51
2022/10/21 00:51:12;;;;;;;10.10;6.67;;;8.20;99.90;;;;;;5007562;28;21166;-51
2022/10/21 00:53:42;;;;;;;6.30;5.70;;;8.20;99.90;;;;;;5004367;28;21031;-51
2022/10/21 00:56:13;;;;;;;7.57;5.87;;;8.30;99.90;;;;;;4986650;28;21003;-52
2022/10/21 00:58:40;;;;;;;7.27;5.73;;;8.30;99.90;;;;;;4988880;28;20837;-52
2022/10/21 01:01:08;;;;;;;7.70;6.07;;;8.30;99.90;;;;;;4983856;28;20515;-52
2022/10/21 01:03:35;;;;;;;6.70;5.73;;;8.30;99.90;;;;;;4984519;28;20489;-52
2022/10/21 01:06:06;;;;;;;9.73;7.07;;;8.30;99.90;;;;;;4989495;28;20926;-52
2022/10/21 01:08:35;;;;;;;7.60;5.50;;;8.40;99.90;;;;;;4987418;28;20542;-52
2022/10/21 01:11:02;;;;;;;7.27;6.57;;;8.30;99.90;;;;;;4985853;28;20489;-52
2022/10/21 01:13:39;;;;;;;7.53;5.90;;;8.40;99.90;;;;;;4987872;28;20460;-51
2022/10/21 01:16:14;;;;;;;7.47;6.40;;;8.30;99.90;;;;;;4981643;28;20830;-51
2022/10/21 01:18:49;;;;;;;7.33;6.50;;;8.30;99.90;;;;;;4988350;28;20492;-52
2022/10/21 01:21:34;;;;;;;7.90;6.13;;;8.30;99.90;;;;;;4990758;28;20492;-51
2022/10/21 01:24:42;;;;;;;8.50;5.97;;;8.30;99.90;;;;;;4986850;28;20488;-51
2022/10/21 01:27:25;;;;;;;8.83;6.77;;;8.30;99.90;;;;;;4984768;28;20456;-51
2022/10/21 01:30:36;;;;;;;10.17;6.60;;;8.30;99.90;;;;;;4982990;28;20933;-52
2022/10/21 01:33:29;;;;;;;8.00;6.20;;;8.30;99.90;;;;;;4988746;28;20472;-51
2022/10/21 01:36:01;;;;;;;11.93;6.43;;;8.40;99.90;;;;;;4992049;28;20515;-52
2022/10/21 01:38:34;;;;;;;11.67;6.07;;;8.30;99.90;;;;;;4991346;28;20546;-51
2022/10/21 01:41:07;;;;;;;6.77;6.07;;;8.40;99.90;;;;;;4986654;28;20501;-52
2022/10/21 01:43:38;;;;;;;9.70;6.27;;;8.40;99.90;;;;;;4990860;28;20543;-51
2022/10/21 01:46:12;;;;;;;5.97;5.37;;;8.40;99.90;;;;;;4988547;28;20544;-51
2022/10/21 01:48:45;;;;;;;8.87;6.40;;;8.50;99.90;;;;;;4985241;28;20464;-52
2022/10/21 01:51:13;;;;;;;7.10;6.20;;;8.40;99.90;;;;;;4988890;28;20511;-51
2022/10/21 01:53:45;;;;;;;7.10;5.93;;;8.40;99.90;;;;;;4986927;28;20986;-51
2022/10/21 01:56:14;;;;;;;10.07;6.50;;;8.50;99.90;;;;;;4992239;28;20484;-51
2022/10/21 01:58:44;;;;;;;8.50;6.07;;;8.40;99.90;;;;;;4990878;28;20496;-52
2022/10/21 02:01:13;;;;;;;9.50;6.93;;;8.40;99.90;;;;;;4991642;28;20491;-52
2022/10/21 02:03:43;;;;;;;6.73;6.10;;;8.40;99.90;;;;;;4988252;28;20488;-51
2022/10/21 02:06:12;;;;;;;8.60;6.70;;;8.40;99.90;;;;;;4987502;28;20887;-51
2022/10/21 02:08:39;;;;;;;6.83;6.17;;;8.40;99.90;;;;;;4991451;28;20467;-52
2022/10/21 02:11:09;;;;;;;9.30;7.03;;;8.40;99.90;;;;;;4990926;28;20546;-51
2022/10/21 02:13:44;;;;;;;8.43;6.03;;;8.40;99.90;;;;;;4986256;28;20489;-51
2022/10/21 02:16:17;;;;;;;8.20;6.87;;;8.40;99.90;;;;;;4988049;28;20531;-51
2022/10/21 02:18:43;;;;;;;16.43;6.40;;;8.40;99.90;;;;;;4990502;28;20499;-51
2022/10/21 02:21:17;;;;;;;8.53;6.40;;;8.40;99.90;;;;;;4987856;28;20492;-51
2022/10/21 02:23:51;;;;;;;11.50;6.20;;;8.40;99.90;;;;;;4991862;28;20838;-51
2022/10/21 02:26:18;;;;;;;7.40;5.93;;;8.50;99.90;;;;;;4991580;28;20532;-51
2022/10/21 02:28:46;;;;;;;16.43;6.80;;;8.50;99.90;;;;;;4992549;28;20562;-51
2022/10/21 02:31:26;;;;;;;7.13;6.37;;;8.50;99.90;;;;;;4983794;28;20551;-52
2022/10/21 02:33:59;;;;;;;7.57;6.20;;;8.50;99.90;;;;;;4984300;28;20488;-51
2022/10/21 02:36:36;;;;;;;8.87;7.30;;;8.50;99.90;;;;;;4986339;28;20529;-51
2022/10/21 02:39:11;;;;;;;7.83;5.40;;;8.60;99.90;;;;;;4990230;28;20484;-51
2022/10/21 02:41:40;;;;;;;9.70;6.60;;;8.60;99.90;;;;;;4993175;28;20969;-52
2022/10/21 02:44:08;;;;;;;6.70;5.80;;;8.50;99.90;;;;;;4989541;28;20529;-51
2022/10/21 02:46:38;;;;;;;12.43;6.80;;;8.60;99.90;;;;;;4991602;28;20635;-52
2022/10/21 02:49:04;;;;;;;6.30;5.80;;;8.60;99.90;;;;;;4990884;28;20969;-51
2022/10/21 02:51:31;;;;;;;7.13;5.80;;;8.60;99.90;;;;;;4992075;28;20516;-51
2022/10/21 02:53:58;;;;;;;10.90;6.70;;;8.50;99.90;;;;;;4990819;28;20492;-51
2022/10/21 02:56:25;;;;;;;15.93;6.83;;;8.50;99.90;;;;;;4984925;28;20483;-51
2022/10/21 02:58:52;;;;;;;7.03;6.33;;;8.50;99.90;;;;;;4983952;28;20552;-51
2022/10/21 03:01:18;;;;;;;8.00;6.00;;;8.50;99.90;;;;;;4985953;28;20982;-51
2022/10/21 03:03:46;;;;;;;7.03;6.30;;;8.50;99.90;;;;;;4984901;28;20982;-52
2022/10/21 03:06:13;;;;;;;8.30;5.87;;;8.60;99.90;;;;;;4990887;28;20856;-52
2022/10/21 03:08:39;;;;;;;12.00;6.93;;;8.60;99.90;;;;;;4989206;28;20554;-52
2022/10/21 03:11:06;;;;;;;10.00;6.70;;;8.60;99.90;;;;;;4987939;28;20519;-51
2022/10/21 03:13:33;;;;;;;7.10;6.40;;;8.60;99.90;;;;;;4989483;28;20946;-51
2022/10/21 03:15:59;;;;;;;9.47;6.83;;;8.60;99.90;;;;;;4990444;28;20531;-52
2022/10/21 03:18:26;;;;;;;7.10;6.40;;;8.60;99.90;;;;;;4988283;28;20496;-51
2022/10/21 03:20:54;;;;;;;10.90;6.73;;;8.60;99.90;;;;;;4981731;28;20551;-52
2022/10/21 03:23:21;;;;;;;7.50;6.77;;;8.60;99.90;;;;;;4985595;28;20488;-51
2022/10/21 03:25:48;;;;;;;11.67;6.93;;;8.60;99.90;;;;;;4989842;28;20511;-51
2022/10/21 03:28:14;;;;;;;9.50;6.23;;;8.50;99.90;;;;;;4987475;28;20489;-51
2022/10/21 03:30:41;;;;;;;10.60;6.50;;;8.50;99.90;;;;;;4988123;28;20516;-51
2022/10/21 03:33:07;;;;;;;7.63;6.07;;;8.50;99.90;;;;;;4989040;28;20499;-51
2022/10/21 03:35:34;;;;;;;8.83;7.93;;;8.60;99.90;;;;;;4986174;28;20500;-51
2022/10/21 03:38:02;;;;;;;7.10;6.40;;;8.50;99.90;;;;;;4987691;28;20570;-51
2022/10/21 03:40:29;;;;;;;9.87;7.33;;;8.60;99.90;;;;;;4991149;28;20500;-51
2022/10/21 03:42:56;;;;;;;9.13;6.90;;;8.60;99.90;;;;;;4988713;28;20465;-51
2022/10/21 03:45:22;;;;;;;9.67;7.37;;;8.60;99.90;;;;;;4987277;28;20707;-51
2022/10/21 03:47:49;;;;;;;9.17;6.60;;;8.60;99.90;;;;;;4989629;28;20491;-51
2022/10/21 03:50:15;;;;;;;12.73;7.53;;;8.50;99.90;;;;;;4989169;28;20524;-51
2022/10/21 03:52:42;;;;;;;7.10;6.50;;;8.50;99.90;;;;;;4990311;28;21041;-51
2022/10/21 03:55:10;;;;;;;13.50;6.97;;;8.50;99.90;;;;;;4983833;28;20512;-51
2022/10/21 03:57:37;;;;;;;11.00;6.53;;;8.60;99.90;;;;;;4990823;28;20550;-51
2022/10/21 04:00:05;;;;;;;8.13;6.57;;;8.60;99.90;;;;;;4978844;28;20491;-52
2022/10/21 04:02:31;;;;;;;8.60;7.00;;;8.50;99.90;;;;;;4988628;28;20553;-51
2022/10/21 04:04:58;;;;;;;9.83;6.83;;;8.60;99.90;;;;;;4987440;28;20546;-52
2022/10/21 04:07:24;;;;;;;8.47;7.57;;;8.60;99.90;;;;;;4989745;28;20492;-52
2022/10/21 04:09:51;;;;;;;8.60;7.00;;;8.60;99.90;;;;;;4983847;28;20504;-51
2022/10/21 04:12:19;;;;;;;7.87;6.30;;;8.60;99.90;;;;;;4987828;28;20488;-51
2022/10/21 04:14:45;;;;;;;9.40;7.87;;;8.60;99.90;;;;;;4989266;28;20520;-52
2022/10/21 04:17:12;;;;;;;12.00;7.87;;;8.50;99.90;;;;;;4990227;28;20503;-51
2022/10/21 04:19:39;;;;;;;8.07;7.27;;;8.60;99.90;;;;;;4985173;28;20511;-52
2022/10/21 04:22:05;;;;;;;10.40;7.70;;;8.60;99.90;;;;;;4987596;28;20484;-51
2022/10/21 04:24:32;;;;;;;10.70;6.90;;;8.60;99.90;;;;;;4985641;28;20546;-52
2022/10/21 04:26:58;;;;;;;9.20;7.87;;;8.60;99.90;;;;;;4988402;28;20551;-51
2022/10/21 04:29:26;;;;;;;9.10;7.53;;;8.60;99.90;;;;;;4990384;28;20527;-52
2022/10/21 04:31:53;;;;;;;18.43;8.60;;;8.60;99.90;;;;;;4987922;28;20574;-52
2022/10/21 04:34:19;;;;;;;8.30;7.50;;;8.60;99.90;;;;;;4984613;28;20562;-53
2022/10/21 04:36:46;;;;;;;11.07;7.60;;;8.60;99.90;;;;;;4989120;28;20504;-52
2022/10/21 04:39:12;;;;;;;13.40;8.30;;;8.60;99.90;;;;;;4987774;28;20491;-52
2022/10/21 04:41:39;;;;;;;9.00;7.77;;;8.60;99.90;;;;;;4985824;28;20485;-52
2022/10/21 04:44:06;;;;;;;9.27;8.10;;;8.60;99.90;;;;;;4988479;28;20492;-53
2022/10/21 04:46:34;;;;;;;9.10;7.40;;;8.60;99.90;;;;;;4987261;28;20476;-51
2022/10/21 04:49:00;;;;;;;9.73;7.57;;;8.60;99.90;;;;;;4986190;28;20489;-52
2022/10/21 04:51:27;;;;;;;12.63;7.80;;;8.60;99.90;;;;;;4987049;28;20516;-52
2022/10/21 04:53:53;;;;;;;8.80;7.90;;;8.70;99.90;;;;;;4987846;28;20868;-51
2022/10/21 04:56:20;;;;;;;11.03;8.10;;;8.70;99.90;;;;;;4988805;28;20488;-52
2022/10/21 04:58:46;;;;;;;8.00;7.13;;;8.60;99.90;;;;;;4990072;28;20468;-52
2022/10/21 05:01:13;;;;;;;10.07;8.10;;;8.70;99.90;;;;;;4986482;28;20516;-52
2022/10/21 05:03:41;;;;;;;13.63;8.47;;;8.60;99.90;;;;;;4986659;28;20496;-51
2022/10/21 05:06:07;;;;;;;11.17;8.93;;;8.60;99.90;;;;;;4986464;28;21065;-51
2022/10/21 05:08:34;;;;;;;10.20;8.03;;;8.60;99.90;;;;;;4990924;28;20488;-51
2022/10/21 05:11:02;;;;;;;12.27;9.60;;;8.60;99.90;;;;;;4989184;28;20516;-52
2022/10/21 05:13:29;;;;;;;10.37;8.77;;;8.50;99.90;;;;;;4990811;28;20516;-51
2022/10/21 05:15:58;;;;;;;9.10;7.60;;;8.50;99.90;;;;;;4997797;28;20484;-51
2022/10/21 05:18:24;;;;;;;8.90;7.57;;;8.50;99.90;;;;;;4992533;28;20464;-51
2022/10/21 05:20:54;;;;;;;9.40;8.13;;;8.50;99.90;;;;;;4985803;28;20464;-51
2022/10/21 05:23:21;;;;;;;9.87;8.83;;;8.50;99.90;;;;;;4991444;28;20500;-51
2022/10/21 05:25:49;;;;;;;10.00;8.70;;;8.50;99.90;;;;;;4984342;28;20535;-51
2022/10/21 05:28:15;;;;;;;14.17;8.90;;;8.50;99.90;;;;;;4987708;28;20472;-51
2022/10/21 05:30:42;;;;;;;15.30;9.20;;;8.50;99.90;;;;;;4988385;28;20516;-51
2022/10/21 05:33:09;;;;;;;8.53;7.63;;;8.50;99.90;;;;;;4992687;28;20488;-51
2022/10/21 05:35:35;;;;;;;11.37;8.30;;;8.50;99.90;;;;;;4991351;28;20834;-51
2022/10/21 05:38:04;;;;;;;15.83;9.20;;;8.60;99.90;;;;;;4984422;28;20497;-51
2022/10/21 05:40:30;;;;;;;10.20;8.67;;;8.50;99.90;;;;;;4990926;28;20468;-52
2022/10/21 05:42:57;;;;;;;8.90;8.00;;;8.60;99.90;;;;;;4987262;28;20975;-52
2022/10/21 05:45:24;;;;;;;8.70;7.90;;;8.60;99.90;;;;;;4989381;28;20520;-52
2022/10/21 05:47:50;;;;;;;11.10;8.13;;;8.60;99.90;;;;;;4986749;28;20546;-51
2022/10/21 05:50:17;;;;;;;8.73;7.87;;;8.60;99.90;;;;;;4989514;28;20468;-51
2022/10/21 05:52:44;;;;;;;11.13;8.30;;;8.70;99.90;;;;;;4990246;28;20520;-51
2022/10/21 05:55:11;;;;;;;10.77;8.60;;;8.70;99.90;;;;;;4987177;28;20512;-51
2022/10/21 05:57:38;;;;;;;8.83;7.40;;;8.70;99.90;;;;;;4993673;28;20497;-51
2022/10/21 06:00:06;;;;;;;15.67;9.00;;;8.80;99.90;;;;;;4989553;28;20465;-51
2022/10/21 06:02:33;;;;;;;10.90;9.27;;;8.80;99.90;;;;;;4990388;28;20489;-51
2022/10/21 06:05:00;;;;;;;15.47;8.20;;;8.80;99.90;;;;;;4987885;28;20543;-52
2022/10/21 06:07:26;;;;;;;9.43;7.37;;;8.80;99.90;;;;;;4989767;28;20496;-52
2022/10/21 06:09:53;;;;;;;9.47;8.10;;;8.80;99.90;;;;;;4991078;28;20492;-51
2022/10/21 06:12:21;;;;;;;9.40;8.47;;;8.90;99.90;;;;;;4991271;28;20519;-51
2022/10/21 06:14:47;;;;;;;9.80;8.27;;;8.90;99.90;;;;;;4988107;28;20515;-51
2022/10/21 06:17:14;;;;;;;18.37;8.73;;;8.90;99.90;;;;;;4991715;28;20496;-52
2022/10/21 06:19:40;;;;;;;9.43;8.43;;;8.90;99.90;;;;;;4987371;28;20517;-51
2022/10/21 06:22:07;;;;;;;8.07;7.27;;;8.90;99.90;;;;;;4988382;28;20485;-51
2022/10/21 06:24:34;;;;;;;15.20;8.50;;;8.90;99.90;;;;;;4991889;28;20505;-51
2022/10/21 06:27:00;;;;;;;8.27;7.20;;;8.90;99.90;;;;;;4991487;28;20488;-52
2022/10/21 06:29:28;;;;;;;10.27;7.80;;;9.00;99.90;;;;;;4987968;28;20488;-51
2022/10/21 06:31:55;;;;;;;11.95;8.30;;;9.00;99.90;;;;;;4988433;28;20454;-51
2022/10/21 06:34:22;;;;;;;13.43;8.57;;;9.00;99.90;;;;;;4984429;28;20261;-51
2022/10/21 06:36:48;;;;;;;11.03;8.63;;;9.00;99.90;;;;;;4990719;28;20724;-52
2022/10/21 06:39:16;;;;;;;15.33;8.80;;;9.00;99.90;;;;;;4985996;28;20496;-52
2022/10/21 06:41:42;;;;;;;10.50;9.00;;;9.00;99.90;;;;;;4992267;28;21065;-52
2022/10/21 06:44:09;;;;;;;9.83;7.80;;;9.00;99.90;;;;;;4986108;28;21036;-52
2022/10/21 06:46:37;;;;;;;10.83;8.80;;;9.10;99.90;;;;;;4989994;28;21154;-51
2022/10/21 06:49:03;;;;;;;13.93;8.63;;;9.10;99.90;;;;;;4988202;28;20982;-51
2022/10/21 06:51:30;;;;;;;12.87;9.67;;;9.10;99.90;;;;;;4992747;28;20992;-51
2022/10/21 06:53:58;;;;;;;13.30;8.47;;;9.10;99.90;;;;;;4986534;28;20615;-52
2022/10/21 06:56:26;;;;;;;9.83;8.57;;;9.20;99.90;;;;;;4986223;28;20492;-51
2022/10/21 06:58:55;;;;;;;9.70;8.10;;;9.20;99.90;;;;;;4983223;28;21029;-51
2022/10/21 07:01:24;;;;;;;10.23;9.17;;;9.30;99.90;;;;;;4988470;28;20515;-51
2022/10/21 07:03:52;;;;;;;11.93;8.20;;;9.30;99.90;;;;;;4986771;28;20492;-51
2022/10/21 07:06:18;;;;;;;9.73;8.27;;;9.30;99.90;;;;;;4989611;28;20990;-52
2022/10/21 07:08:45;;;;;;;11.63;9.70;;;9.40;99.90;;;;;;4993237;28;20488;-51
2022/10/21 07:11:13;;;;;;;11.97;9.77;;;9.40;99.90;;;;;;4990398;28;20485;-51
2022/10/21 07:13:40;;;;;;;9.10;8.20;;;9.50;99.90;;;;;;4984810;28;20464;-51
2022/10/21 07:16:08;;;;;;;12.53;9.40;;;9.50;99.90;;;;;;4989666;28;20519;-51
2022/10/21 07:18:35;;;;;;;11.20;8.90;;;9.50;99.90;;;;;;4987754;28;20500;-52
2022/10/21 07:21:07;;;;;;;13.20;9.33;;;9.60;1.40;;;;;;4991440;28;20495;-51
2022/10/21 07:23:34;;;;;;;11.63;8.63;;;9.60;99.90;;;;;;4989677;28;20496;-51
2022/10/21 07:26:02;;;;;;;10.97;9.33;;;9.60;99.90;;;;;;4991010;28;20523;-51
2022/10/21 07:28:29;;;;;;;16.70;9.30;;;9.70;99.90;;;;;;4989613;28;20499;-53
2022/10/21 07:30:56;;;;;;;13.27;8.73;;;9.70;99.90;;;;;;4987218;28;20893;-52
2022/10/21 07:33:22;;;;;;;16.90;9.17;;;9.70;99.90;;;;;;4988267;28;20617;-52
2022/10/21 07:35:49;;;;;;;14.77;8.97;;;9.80;99.90;;;;;;4986949;28;20512;-52
2022/10/21 07:38:17;;;;;;;9.30;8.30;;;9.90;99.90;;;;;;4989826;28;20971;-52
2022/10/21 07:40:44;;;;;;;11.40;10.20;;;9.90;99.90;;;;;;4990686;28;20529;-52
2022/10/21 07:43:11;;;;;;;18.00;9.37;;;10.00;99.90;;;;;;4989933;28;20562;-53
2022/10/21 07:45:40;;;;;;;9.37;8.37;;;10.00;99.90;;;;;;4983823;28;20481;-52
2022/10/21 07:48:07;;;;;;;11.73;9.90;;;10.10;99.90;;;;;;4989403;28;20456;-51
2022/10/21 07:50:33;;;;;;;9.90;8.50;;;10.20;99.90;;;;;;4987507;28;20480;-51
2022/10/21 07:53:01;;;;;;;12.83;8.30;;;10.20;99.90;;;;;;4989506;28;20528;-51
2022/10/21 07:55:29;;;;;;;15.07;9.00;;;10.20;99.90;;;;;;4988630;28;20503;-51
2022/10/21 07:57:56;;;;;;;12.67;10.00;;;10.30;99.90;;;;;;4991033;28;20962;-51
2022/10/21 08:00:22;;;;;;;9.13;8.20;;;10.40;99.90;;;;;;4989314;28;20538;-51
2022/10/21 08:02:54;;;;;;;12.37;8.87;;;10.50;99.90;;;;;;4990760;28;20488;-52
2022/10/21 08:05:20;;;;;;;22.17;8.70;;;10.50;99.90;;;;;;4989387;28;20479;-52
2022/10/21 08:07:47;;;;;;;14.73;9.40;;;10.60;99.90;;;;;;4990615;28;20495;-51
2022/10/21 08:10:14;;;;;;;11.50;8.50;;;10.60;99.90;;;;;;4990709;28;20492;-52
2022/10/21 08:12:42;;;;;;;11.27;9.10;;;10.70;99.90;;;;;;4989230;28;20920;-52
2022/10/21 08:15:09;;;;;;;10.63;9.40;;;10.70;99.90;;;;;;4984474;28;20488;-52
2022/10/21 08:17:36;;;;;;;10.43;9.10;;;10.80;99.90;;;;;;4990397;28;20946;-53
2022/10/21 08:20:02;;;;;;;16.73;10.47;;;10.90;99.90;;;;;;4991023;28;20492;-52
2022/10/21 08:22:29;;;;;;;10.23;9.23;;;10.90;85.70;;;;;;4989321;28;20519;-52
2022/10/21 08:24:56;;;;;;;15.43;9.20;;;11.00;91.80;;;;;;4986295;28;20481;-52
2022/10/21 08:27:22;;;;;;;15.73;10.43;;;11.00;99.00;;;;;;4983827;28;20523;-52
2022/10/21 08:29:50;;;;;;;10.40;8.47;;;11.10;22.50;;;;;;4986559;28;20488;-52
2022/10/21 08:32:16;;;;;;;15.43;9.27;;;11.20;31.00;;;;;;4985814;28;20524;-52
2022/10/21 08:34:43;;;;;;;12.40;9.80;;;11.30;35.90;;;;;;4985782;28;20548;-52
2022/10/21 08:37:10;;;;;;;10.00;9.00;;;11.50;37.60;;;;;;4987527;28;20543;-52
2022/10/21 08:39:36;;;;;;;9.87;8.80;;;11.60;57.00;;;;;;4991044;28;20978;-52
2022/10/21 08:42:10;;;;;;;10.70;9.13;;;11.70;60.10;;;;;;4989850;28;21521;-53
2022/10/21 08:44:49;;;;;;;14.00;8.90;;;11.70;69.20;;;;;;4994363;28;21085;-51
2022/10/21 08:47:24;;;;;;;11.90;9.33;;;11.70;71.50;;;;;;4993684;28;20492;-52
2022/10/21 08:50:01;;;;;;;10.83;9.17;;;11.70;69.90;;;;;;4994946;28;20495;-52
2022/10/21 08:52:37;;;;;;;11.73;8.50;;;11.70;76.10;;;;;;4991531;28;20570;-51
2022/10/21 08:55:07;;;;;;;9.83;8.87;;;11.70;75.60;;;;;;4993198;28;21178;-52
2022/10/21 08:57:34;;;;;;;11.83;7.57;;;11.70;71.70;;;;;;4992153;28;20495;-51
2022/10/21 09:00:05;;;;;;;14.70;9.10;;;11.70;59.90;;;;;;4992303;28;20460;-52
2022/10/21 09:02:43;;;;;;;10.57;7.83;;;11.70;71.30;;;;;;4990833;28;20488;-51
2022/10/21 09:05:27;;;;;;;12.43;9.43;;;11.70;71.90;;;;;;4994134;28;20512;-51
2022/10/21 09:08:03;;;;;;;10.50;9.00;;;11.70;69.60;;;;;;4994762;28;21316;-51
2022/10/21 09:10:41;;;;;;;10.00;8.70;;;11.80;70.50;;;;;;4994635;28;20484;-51
2022/10/21 09:13:17;;;;;;;13.47;9.10;;;11.80;79.20;;;;;;4990674;28;20511;-51
2022/10/21 09:15:54;;;;;;;13.50;8.47;;;11.90;76.60;;;;;;4991988;28;20885;-51
2022/10/21 09:18:44;;;;;;;18.93;9.23;;;11.90;72.60;;;;;;4985952;28;20491;-51
2022/10/21 09:21:20;;;;;;;16.47;8.83;;;12.00;90.10;;;;;;4990620;28;20966;-53
2022/10/21 09:23:57;;;;;;;11.53;8.70;;;12.10;82.40;;;;;;4991223;28;20456;-51
2022/10/21 09:26:34;;;;;;;15.03;9.90;;;12.20;87.70;;;;;;4989864;28;20487;-52
2022/10/21 09:29:12;;;;;;;15.03;8.77;;;12.40;99.90;;;;;;4992800;28;20488;-52
2022/10/21 09:31:40;;;;;;;12.57;9.60;;;12.60;99.90;;;;;;4989040;28;20490;-52
2022/10/21 09:34:18;;;;;;;11.03;8.77;;;12.80;99.90;;;;;;4993356;28;20552;-51
2022/10/21 09:36:47;;;;;;;10.10;8.90;;;12.90;99.90;;;;;;4983739;28;20468;-52
2022/10/21 09:39:19;;;;;;;11.47;8.27;;;12.90;99.90;;;;;;4993225;28;20464;-52
2022/10/21 09:41:51;;;;;;;13.17;9.60;;;13.20;99.90;;;;;;4991838;28;20526;-52
2022/10/21 09:44:21;;;;;;;10.90;8.83;;;13.30;99.90;;;;;;4990015;28;20547;-51
2022/10/21 09:46:48;;;;;;;11.83;9.13;;;13.40;1.40;;;;;;4992987;28;20546;-52
2022/10/21 09:49:25;;;;;;;12.73;10.10;;;14.80;99.90;;;;;;4993216;28;20543;-52
2022/10/21 09:51:52;;;;;;;12.63;9.00;;;16.60;66.50;;;;;;4986578;28;20934;-51
2022/10/21 09:54:22;;;;;;;10.47;8.60;;;16.70;75.80;;;;;;4989282;28;20584;-51
2022/10/21 09:56:55;;;;;;;16.47;8.33;;;17.30;64.60;;;;;;4990775;28;20489;-52
2022/10/21 09:59:24;;;;;;;11.90;9.03;;;17.10;88.60;;;;;;4990809;28;20460;-51
2022/10/21 10:01:51;;;;;;;11.20;8.17;;;17.70;90.60;;;;;;4989002;28;20464;-52
2022/10/21 10:04:28;;;;;;;10.30;8.60;;;16.80;84.70;;;;;;4990673;28;20478;-52
2022/10/21 10:06:55;;;;;;;18.07;10.30;;;16.10;65.30;;;;;;4986251;28;20488;-52
2022/10/21 10:09:27;;;;;;;7.67;6.87;;;15.70;43.00;;;;;;4991484;28;20546;-52
2022/10/21 10:11:57;;;;;;;9.00;7.13;;;15.60;31.90;;;;;;4992385;28;20523;-51
2022/10/21 10:14:30;;;;;;;9.63;7.00;;;15.50;32.20;;;;;;4990023;28;20496;-52
2022/10/21 10:16:57;;;;;;;8.93;7.33;;;15.40;34.40;;;;;;4987868;28;20488;-52
2022/10/21 10:19:27;;;;;;;7.83;7.03;;;15.30;22.40;;;;;;4990381;28;20464;-52
2022/10/21 10:22:09;;;;;;;8.30;7.50;;;15.20;99.90;;;;;;4993382;28;20484;-52
2022/10/21 10:24:36;;;;;;;10.10;7.70;;;15.10;93.90;;;;;;4992476;28;20854;-51
2022/10/21 10:27:05;;;;;;;10.07;8.53;;;14.90;99.90;;;;;;4985990;28;20873;-52
2022/10/21 10:29:33;;;;;;;14.13;8.17;;;14.60;99.90;;;;;;4990149;28;20519;-52
2022/10/21 10:32:01;;;;;;;10.50;8.50;;;14.50;99.90;;;;;;4991060;28;20555;-52
2022/10/21 10:34:34;;;;;;;13.47;7.70;;;14.40;99.90;;;;;;4989976;28;20481;-51
2022/10/21 10:37:04;;;;;;;18.33;9.53;;;14.30;99.90;;;;;;4990293;28;20515;-52
2022/10/21 10:39:35;;;;;;;16.70;10.73;;;14.10;99.90;;;;;;4990855;28;20492;-52
2022/10/21 10:42:02;;;;;;;14.50;9.00;;;14.10;99.90;;;;;;4986841;28;20496;-52
2022/10/21 10:44:33;;;;;;;10.20;8.43;;;14.00;99.90;;;;;;4991571;28;20531;-52
2022/10/21 10:47:02;;;;;;;11.30;9.80;;;14.00;99.90;;;;;;4991932;28;20488;-51
2022/10/21 10:49:37;;;;;;;13.40;10.23;;;13.80;99.90;;;;;;4990676;28;20461;-52
2022/10/21 10:52:13;;;;;;;26.33;10.33;;;13.90;99.90;;;;;;4984067;28;20491;-52
2022/10/21 10:54:42;;;;;;;16.47;10.07;;;13.80;99.90;;;;;;4989896;28;20488;-51
2022/10/21 10:57:12;;;;;;;11.90;8.03;;;13.90;99.90;;;;;;4985261;28;20567;-52
2022/10/21 10:59:43;;;;;;;13.30;9.87;;;13.90;99.90;;;;;;4987088;28;20492;-52
2022/10/21 11:02:23;;;;;;;15.23;9.37;;;14.00;99.90;;;;;;4983170;28;20489;-51
2022/10/21 11:05:23;;;;;;;16.73;10.27;;;14.00;99.90;;;;;;4988839;28;20520;-51
2022/10/21 11:07:51;;;;;;;11.73;9.40;;;14.10;99.90;;;;;;4942892;28;20476;-52
2022/10/21 11:10:32;;;;;;;12.10;8.90;;;14.30;99.90;;;;;;4986073;28;20504;-52
2022/10/21 11:13:00;;;;;;;11.53;8.40;;;14.40;99.90;;;;;;4987555;28;20485;-51
2022/10/21 11:15:37;;;;;;;16.77;10.07;;;14.60;99.90;;;;;;4988645;28;20610;-51
2022/10/21 11:18:13;;;;;;;14.83;7.70;;;14.60;99.90;;;;;;4983500;28;21022;-51
2022/10/21 11:20:48;;;;;;;12.27;9.40;;;14.80;99.90;;;;;;4987201;28;20491;-52
2022/10/21 11:23:42;;;;;;;15.30;8.63;;;15.00;99.90;;;;;;4989076;28;20534;-52
2022/10/21 11:26:23;;;;;;;9.13;8.23;;;15.10;99.90;;;;;;4987133;28;20527;-51
2022/10/21 11:28:56;;;;;;;12.47;8.83;;;15.20;99.90;;;;;;4987940;28;20492;-52
2022/10/21 11:31:29;;;;;;;9.20;8.03;;;15.30;99.90;;;;;;4988119;28;20489;-52
2022/10/21 11:34:01;;;;;;;12.93;9.43;;;15.50;99.90;;;;;;4986563;28;20520;-52
2022/10/21 11:36:37;;;;;;;13.83;9.00;;;15.60;99.90;;;;;;4991162;28;20503;-52
2022/10/21 11:39:29;;;;;;;15.27;9.53;;;15.60;99.90;;;;;;4990435;28;20495;-52
2022/10/21 11:42:02;;;;;;;9.07;8.17;;;15.60;99.90;;;;;;4983596;28;20582;-52
2022/10/21 11:44:40;;;;;;;14.90;9.93;;;15.60;99.90;;;;;;4989696;28;21017;-52
2022/10/21 11:47:15;;;;;;;9.23;7.50;;;15.50;99.90;;;;;;4985562;28;20502;-51
2022/10/21 11:49:55;;;;;;;9.87;8.40;;;15.60;99.90;;;;;;4976058;28;20559;-52
2022/10/21 11:52:34;;;;;;;11.00;8.30;;;15.60;99.90;;;;;;4978656;28;21378;-52
2022/10/21 11:55:26;;;;;;;9.40;8.47;;;15.50;99.90;;;;;;4985115;28;20564;-52
2022/10/21 11:57:58;;;;;;;12.83;9.20;;;15.50;99.90;;;;;;4988762;28;20492;-52
2022/10/21 12:00:26;;;;;;;14.33;9.27;;;15.40;99.90;;;;;;4981545;28;20547;-52
2022/10/21 12:03:15;;;;;;;19.93;9.33;;;15.40;99.90;;;;;;4974542;28;20492;-52
2022/10/21 12:05:51;;;;;;;15.27;8.97;;;15.30;99.90;;;;;;4987336;28;20673;-52
2022/10/21 12:08:25;;;;;;;12.13;8.70;;;15.20;99.90;;;;;;4984729;28;20495;-51
2022/10/21 12:10:58;;;;;;;15.77;9.30;;;15.20;99.90;;;;;;4982841;28;20499;-51
2022/10/21 12:13:29;;;;;;;14.10;9.20;;;15.20;99.90;;;;;;4981932;28;20524;-51
2022/10/21 12:15:58;;;;;;;16.73;9.17;;;15.20;99.90;;;;;;4982245;28;20477;-52
2022/10/21 12:18:28;;;;;;;9.60;8.60;;;15.30;99.90;;;;;;4986369;28;20554;-51
2022/10/21 12:20:55;;;;;;;11.63;8.33;;;15.30;99.90;;;;;;4981478;28;20484;-51
2022/10/21 12:23:27;;;;;;;13.30;8.00;;;15.40;99.90;;;;;;4984557;28;21061;-51
2022/10/21 12:26:04;;;;;;;21.70;9.43;;;15.40;99.90;;;;;;4983307;28;20535;-52
2022/10/21 12:28:37;;;;;;;10.70;8.90;;;15.40;99.90;;;;;;4984543;28;20513;-51
2022/10/21 12:31:21;;;;;;;20.40;8.10;;;15.40;99.90;;;;;;4990142;28;22230;-51
2022/10/21 12:33:49;;;;;;;11.60;8.20;;;15.40;99.90;;;;;;4985586;28;20586;-51
2022/10/21 12:36:35;;;;;;;14.73;8.27;;;15.40;99.90;;;;;;4988299;28;20915;-51
2022/10/21 12:39:05;;;;;;;8.83;7.53;;;15.40;99.90;;;;;;4980029;28;20470;-51
2022/10/21 12:41:33;;;;;;;11.83;8.57;;;15.40;99.90;;;;;;4968327;28;20565;-51
2022/10/21 12:44:17;;;;;;;17.00;7.40;;;15.40;99.90;;;;;;4982165;28;20456;-50
2022/10/21 12:46:46;;;;;;;11.90;8.13;;;15.40;99.90;;;;;;4988063;28;20468;-51
2022/10/21 12:49:24;;;;;;;11.00;7.83;;;15.40;99.90;;;;;;4988975;28;20977;-52
2022/10/21 12:51:55;;;;;;;14.93;8.47;;;15.40;99.90;;;;;;4981196;28;20496;-52
2022/10/21 12:54:27;;;;;;;12.70;8.87;;;15.50;99.90;;;;;;4983255;28;21098;-52
2022/10/21 12:57:01;;;;;;;14.17;8.80;;;15.50;99.90;;;;;;4987298;28;20487;-52
2022/10/21 12:59:31;;;;;;;9.43;7.90;;;15.50;99.90;;;;;;4985529;28;20465;-51
2022/10/21 13:02:21;;;;;;;13.47;8.10;;;15.50;99.90;;;;;;4985126;28;20496;-52
2022/10/21 13:04:51;;;;;;;14.27;8.40;;;15.50;99.90;;;;;;4983771;28;20472;-52